Time;durP1;ratioP1;P1;durP2;ratioP2;P2;SDS_P1;SDS_P2;PMS_P1;PMS_P2;Temp;Humidity;BMP_temperature;BMP_pressure;BME280_temperature;BME280_humidity;BME280_pressure;Samples;Min_cycle;Max_cycle;Signal;HPM_P1;HPM_P2
2021/03/19 00:07:05;;;;;;;47.6;27;;;;;;;-2.9;88.38379;98632.97;;;;
2021/03/19 00:17:02;;;;;;;42.5;31.7;;;;;;;-2.95;88.67773;98622.27;;;;
2021/03/19 00:26:59;;;;;;;33.4;26.1;;;;;;;-2.98;89.1709;98629.81;;;;
2021/03/19 00:36:56;;;;;;;41.7;28.1;;;;;;;-2.86;88.99902;98620.16;;;;
2021/03/19 00:46:54;;;;;;;45.1;32.1;;;;;;;-2.7;89.4707;98615.08;;;;
2021/03/19 00:56:51;;;;;;;38.5;27.3;;;;;;;-2.52;89.3125;98610.8;;;;
2021/03/19 01:06:48;;;;;;;43.1;33;;;;;;;-2.43;89.7666;98599.71;;;;
2021/03/19 01:16:45;;;;;;;69.5;45.4;;;;;;;-2.36;90.87207;98605.7;;;;
2021/03/19 01:26:43;;;;;;;61.2;42.5;;;;;;;-2.38;92.27246;98606.97;;;;
2021/03/19 01:36:40;;;;;;;68.1;45.9;;;;;;;-2.37;92.33984;98605.95;;;;
2021/03/19 01:46:38;;;;;;;62.4;46.2;;;;;;;-2.38;91.89258;98607.77;;;;
2021/03/19 01:56:38;;;;;;;63.4;39.4;;;;;;;-2.56;92.13574;98591.98;;;;
2021/03/19 02:06:38;;;;;;;65.3;42.9;;;;;;;-2.83;92.02246;98606.53;;;;
2021/03/19 02:16:38;;;;;;;61.5;42.9;;;;;;;-3.12;92.49414;98603.59;;;;
2021/03/19 02:26:26;;;;;;;74.8;55.4;;;;;;;-3.57;97.68066;98604.85;;;;
2021/03/19 02:36:23;;;;;;;66.1;49;;;;;;;-3.66;97.8877;98608.8;;;;
2021/03/19 02:46:20;;;;;;;78.3;51.6;;;;;;;-3.87;99;98602.08;;;;
2021/03/19 02:56:18;;;;;;;65.2;48;;;;;;;-3.97;99.83008;98608.84;;;;
2021/03/19 03:06:15;;;;;;;74.5;48.9;;;;;;;-4.1;100;98610.56;;;;
2021/03/19 03:16:12;;;;;;;86;56.7;;;;;;;-4.17;100;98608.98;;;;
2021/03/19 03:26:09;;;;;;;71.6;53.2;;;;;;;-4.21;100;98610.42;;;;
2021/03/19 03:36:06;;;;;;;71.8;51;;;;;;;-4.3;100;98615.12;;;;
2021/03/19 03:46:03;;;;;;;70;46.9;;;;;;;-4.35;100;98614.96;;;;
2021/03/19 03:56:00;;;;;;;73.1;44.5;;;;;;;-4.47;100;98615.82;;;;
2021/03/19 04:05:57;;;;;;;83.1;56.8;;;;;;;-4.49;100;98607.34;;;;
2021/03/19 04:15:54;;;;;;;76.7;45.8;;;;;;;-4.43;100;98609.13;;;;
2021/03/19 04:25:51;;;;;;;72.9;42.6;;;;;;;-4.37;100;98614.34;;;;
2021/03/19 04:35:48;;;;;;;70.3;47.3;;;;;;;-4.39;100;98611.13;;;;
2021/03/19 04:45:45;;;;;;;74.1;50.8;;;;;;;-4.39;100;98607.7;;;;
2021/03/19 04:55:42;;;;;;;69.2;45.1;;;;;;;-4.44;100;98610.16;;;;
2021/03/19 05:05:39;;;;;;;79.5;55.1;;;;;;;-4.39;100;98619.02;;;;
2021/03/19 05:15:36;;;;;;;67;49.1;;;;;;;-4.18;100;98623.96;;;;
2021/03/19 05:25:35;;;;;;;64;47.3;;;;;;;-3.79;100;98616.8;;;;
2021/03/19 05:35:30;;;;;;;72.5;48.8;;;;;;;-3.37;100;98626.58;;;;
2021/03/19 05:45:27;;;;;;;69.7;49.6;;;;;;;-2.92;100;98629.77;;;;
2021/03/19 05:55:25;;;;;;;65.9;48.8;;;;;;;-2.39;100;98642.29;;;;
2021/03/19 06:05:22;;;;;;;61.8;48.5;;;;;;;-2.11;100;98650.44;;;;
2021/03/19 06:15:19;;;;;;;92.5;60.1;;;;;;;-1.85;100;98646.63;;;;
2021/03/19 06:25:16;;;;;;;81.9;58.9;;;;;;;-1.57;100;98660.02;;;;
2021/03/19 06:35:14;;;;;;;100.5;80;;;;;;;-1.2;100;98669.35;;;;
2021/03/19 06:45:11;;;;;;;146.4;103.7;;;;;;;-1.09;100;98683.61;;;;
2021/03/19 06:55:09;;;;;;;133.7;108.9;;;;;;;-1.04;100;98676.58;;;;
2021/03/19 07:05:06;;;;;;;165.4;116.4;;;;;;;-0.76;100;98683.81;;;;
2021/03/19 07:15:06;;;;;;;133;98.1;;;;;;;-0.91;100;98685.34;;;;
2021/03/19 07:25:01;;;;;;;132.1;101.2;;;;;;;-0.56;100;98709.92;;;;
2021/03/19 07:35:01;;;;;;;127.1;97;;;;;;;-0.51;100;98715.3;;;;
2021/03/19 07:44:56;;;;;;;114.3;80.3;;;;;;;-0.39;100;98707.35;;;;
2021/03/19 07:54:54;;;;;;;98.2;73.8;;;;;;;-0.25;100;98704.22;;;;
2021/03/19 08:04:52;;;;;;;123.5;90.6;;;;;;;0.36;98.99023;98710.64;;;;
2021/03/19 08:14:54;;;;;;;100.2;75.5;;;;;;;0.37;97.74414;98712.25;;;;
2021/03/19 08:24:48;;;;;;;79.6;65.2;;;;;;;0.84;97.62207;98712.77;;;;
2021/03/19 08:34:45;;;;;;;80;61.7;;;;;;;1.23;95.20996;98713.63;;;;
2021/03/19 08:44:43;;;;;;;49.2;35;;;;;;;1.45;88.30859;98703.85;;;;
2021/03/19 08:54:41;;;;;;;32;25;;;;;;;1.93;86.22461;98695.14;;;;
2021/03/19 09:04:53;;;;;;;18.5;12.5;;;;;;;2.35;82.01367;98693.46;;;;
2021/03/19 09:14:46;;;;;;;10.7;9;;;;;;;2.9;76.58008;98689.66;;;;
2021/03/19 09:24:36;;;;;;;16.4;11.5;;;;;;;3.66;72.25098;98693.58;;;;
2021/03/19 09:34:46;;;;;;;11.1;9.9;;;;;;;4.45;74.5;98680.73;;;;
2021/03/19 09:44:30;;;;;;;20.7;13.7;;;;;;;3.88;68.0127;98669.41;;;;
2021/03/19 09:54:29;;;;;;;15.8;13.5;;;;;;;3.57;68.06348;98673.83;;;;
2021/03/19 10:04:27;;;;;;;15.8;12.3;;;;;;;4.09;64.8457;98672.94;;;;
2021/03/19 10:14:25;;;;;;;15;13.4;;;;;;;4.09;66.50879;98665.74;;;;
2021/03/19 10:24:23;;;;;;;13;11;;;;;;;4.24;61.7998;98663.09;;;;
2021/03/19 10:34:21;;;;;;;40;20.4;;;;;;;4.54;62.35645;98670.34;;;;
2021/03/19 10:44:20;;;;;;;31;27.7;;;;;;;3.38;69.23438;98683.31;;;;
2021/03/19 10:54:18;;;;;;;36.6;27.7;;;;;;;3.11;71.50098;98677.3;;;;
2021/03/19 11:04:16;;;;;;;30.9;22.2;;;;;;;3.41;71.62012;98680.13;;;;
2021/03/19 11:14:14;;;;;;;37.4;23.3;;;;;;;3.95;68.21484;98673.44;;;;
2021/03/19 11:24:12;;;;;;;26;19.2;;;;;;;3.27;69.13965;98679.78;;;;
2021/03/19 11:34:10;;;;;;;26;17.7;;;;;;;1.97;79.56543;98693.59;;;;
2021/03/19 11:44:08;;;;;;;26.4;19.2;;;;;;;1.5;86.17188;98696.74;;;;
2021/03/19 11:54:08;;;;;;;24;16.5;;;;;;;1.46;90.09277;98702.78;;;;
2021/03/19 12:04:03;;;;;;;19.6;15.7;;;;;;;1.31;90.38184;98707.91;;;;
2021/03/19 12:14:01;;;;;;;23.5;17.6;;;;;;;1.39;90.48438;98694.19;;;;
2021/03/19 12:23:59;;;;;;;22.5;18.3;;;;;;;1.91;88.75684;98690.06;;;;
2021/03/19 12:33:57;;;;;;;21.3;13.8;;;;;;;2.24;84.17969;98694.41;;;;
2021/03/19 12:43:55;;;;;;;15.5;13.4;;;;;;;2.77;79.17188;98695.42;;;;
2021/03/19 12:53:53;;;;;;;19.3;12.8;;;;;;;2.66;76.27246;98683.89;;;;
2021/03/19 13:03:50;;;;;;;22.9;16.2;;;;;;;3.45;74.45996;98692.67;;;;
2021/03/19 13:13:48;;;;;;;21.8;15;;;;;;;3.35;73.65332;98681.97;;;;
2021/03/19 13:23:46;;;;;;;25.7;18.1;;;;;;;3.46;73.68457;98659.66;;;;
2021/03/19 13:33:44;;;;;;;21;16.1;;;;;;;3.77;74.25879;98655.25;;;;
2021/03/19 13:43:43;;;;;;;22.7;18.3;;;;;;;3.8;74.19824;98668.05;;;;
2021/03/19 13:53:43;;;;;;;20.3;15.2;;;;;;;3.73;74.33984;98662.16;;;;
2021/03/19 14:03:40;;;;;;;21.5;13.8;;;;;;;3.8;71.18262;98656.58;;;;
2021/03/19 14:13:37;;;;;;;16.4;14.1;;;;;;;4.26;68.53027;98655.64;;;;
2021/03/19 14:23:36;;;;;;;10.8;8.1;;;;;;;4.27;58.9209;98651.89;;;;
2021/03/19 14:33:33;;;;;;;13.6;7.7;;;;;;;3.07;73.79297;98676.2;;;;
2021/03/19 14:43:31;;;;;;;13;8.4;;;;;;;1.65;83.25684;98705.95;;;;
2021/03/19 14:53:28;;;;;;;12.6;8.6;;;;;;;0.41;94.10645;98713.39;;;;
2021/03/19 15:03:26;;;;;;;8;5.7;;;;;;;-0.07;100;98701.37;;;;
2021/03/19 15:13:24;;;;;;;16.8;10.1;;;;;;;1.05;96.14453;98705.91;;;;
2021/03/19 15:23:22;;;;;;;9.7;7.6;;;;;;;1.47;92.05176;98712.36;;;;
2021/03/19 15:33:19;;;;;;;13.4;9.1;;;;;;;1.41;92.05176;98705.38;;;;
2021/03/19 15:43:17;;;;;;;18.9;12.7;;;;;;;1.57;92.79004;98712.49;;;;
2021/03/19 15:53:15;;;;;;;14.6;9.8;;;;;;;1.13;94.82422;98685.09;;;;
2021/03/19 16:03:13;;;;;;;18.3;15.4;;;;;;;0.94;96.0332;98697.8;;;;
2021/03/19 16:13:10;;;;;;;24.8;19.5;;;;;;;1.09;93.66309;98723.77;;;;
2021/03/19 16:23:08;;;;;;;24.9;18.5;;;;;;;0.81;95.37988;98729.97;;;;
2021/03/19 16:33:06;;;;;;;20.9;14.3;;;;;;;0.11;97.02734;98736.66;;;;
2021/03/19 16:43:03;;;;;;;20.6;14.6;;;;;;;-0.03;97.4248;98744.09;;;;
2021/03/19 16:53:01;;;;;;;23.9;17.5;;;;;;;-0.18;97.37793;98738.51;;;;
2021/03/19 17:02:58;;;;;;;15.8;12.5;;;;;;;-0.42;97.32422;98748.34;;;;
2021/03/19 17:12:56;;;;;;;30.2;20;;;;;;;-0.58;98.42383;98754.33;;;;
2021/03/19 17:22:54;;;;;;;32.7;24.2;;;;;;;-0.91;100;98759.41;;;;
2021/03/19 17:32:51;;;;;;;27.3;21.4;;;;;;;-1.04;100;98769.16;;;;
2021/03/19 17:42:48;;;;;;;29;22.7;;;;;;;-1.18;100;98767.75;;;;
2021/03/19 17:52:46;;;;;;;33.5;25.4;;;;;;;-1.34;100;98772.89;;;;
2021/03/19 18:02:43;;;;;;;26.3;21.8;;;;;;;-1.38;100;98772.53;;;;
2021/03/19 18:12:41;;;;;;;42.3;26.7;;;;;;;-1.48;100;98780.21;;;;
2021/03/19 18:22:38;;;;;;;33.2;26.5;;;;;;;-1.45;100;98771.83;;;;
2021/03/19 18:32:36;;;;;;;35.3;26.3;;;;;;;-1.38;100;98796.33;;;;
2021/03/19 18:42:33;;;;;;;37.9;29.4;;;;;;;-1.45;100;98795.61;;;;
2021/03/19 18:52:30;;;;;;;34.9;28.7;;;;;;;-1.6;100;98803.94;;;;
2021/03/19 19:02:28;;;;;;;41.3;35.9;;;;;;;-1.64;100;98813.38;;;;
2021/03/19 19:12:24;;;;;;;34.1;27.7;;;;;;;-1.59;100;98817.96;;;;
2021/03/19 19:22:22;;;;;;;57.4;38.8;;;;;;;-1.53;100;98827.66;;;;
2021/03/19 19:32:19;;;;;;;39.1;31.6;;;;;;;-1.66;100;98822.53;;;;
2021/03/19 19:42:16;;;;;;;95.3;57.6;;;;;;;-1.68;100;98835.16;;;;
2021/03/19 19:52:14;;;;;;;87.4;59;;;;;;;-1.76;100;98843.39;;;;
2021/03/19 20:02:11;;;;;;;42.1;28.4;;;;;;;-1.89;100;98856.75;;;;
2021/03/19 20:12:08;;;;;;;40.9;31.9;;;;;;;-1.89;100;98854.92;;;;
2021/03/19 20:22:05;;;;;;;47.4;35.9;;;;;;;-2.14;100;98856.82;;;;
2021/03/19 20:32:02;;;;;;;57;37.7;;;;;;;-2.4;100;98851.81;;;;
2021/03/19 20:42:00;;;;;;;44.2;37.8;;;;;;;-2.69;100;98848.81;;;;
2021/03/19 20:51:57;;;;;;;44;31.9;;;;;;;-2.89;100;98855.27;;;;
2021/03/19 21:01:54;;;;;;;37;32.1;;;;;;;-3.1;100;98864.34;;;;
2021/03/19 21:11:51;;;;;;;60.2;43.1;;;;;;;-3.39;100;98873.63;;;;
2021/03/19 21:21:48;;;;;;;55.9;39.8;;;;;;;-3.6;100;98887.1;;;;
2021/03/19 21:31:45;;;;;;;64.9;43.9;;;;;;;-3.5;100;98897.99;;;;
2021/03/19 21:41:42;;;;;;;60.3;42.4;;;;;;;-3.29;100;98905.59;;;;
2021/03/19 21:51:39;;;;;;;67.2;42.4;;;;;;;-3.23;100;98914.51;;;;
2021/03/19 22:01:37;;;;;;;70.8;48.8;;;;;;;-3.26;100;98910.44;;;;
2021/03/19 22:11:32;;;;;;;71.3;50.9;;;;;;;-3.4;100;98924.7;;;;
2021/03/19 22:21:29;;;;;;;72.7;51;;;;;;;-3.46;100;98932.63;;;;
2021/03/19 22:31:26;;;;;;;64.2;45.4;;;;;;;-3.42;100;98937.28;;;;
2021/03/19 22:41:23;;;;;;;68.7;47.6;;;;;;;-3.16;100;98929.24;;;;
2021/03/19 22:51:20;;;;;;;68.6;49.4;;;;;;;-2.93;100;98936.63;;;;
2021/03/19 23:01:18;;;;;;;83.7;50.3;;;;;;;-2.74;100;98940.17;;;;
2021/03/19 23:11:15;;;;;;;73.3;50.4;;;;;;;-2.5;100;98952.59;;;;
2021/03/19 23:21:12;;;;;;;79.2;53.5;;;;;;;-2.28;100;98955.64;;;;
2021/03/19 23:31:09;;;;;;;75.4;52.4;;;;;;;-2.14;100;98967.7;;;;
2021/03/19 23:41:06;;;;;;;64.1;50.1;;;;;;;-2;100;98961.28;;;;
2021/03/19 23:51:03;;;;;;;66.6;51.4;;;;;;;-1.86;100;98967.24;;;;
